createdAt,value
2016-07-30T00:01:21.792Z,1000.02
2016-07-30T00:16:20.096Z,1000.02
2016-07-30T00:31:15.436Z,1000.04
2016-07-30T00:46:21.614Z,1000.24
2016-07-30T01:01:17.490Z,1000.18
2016-07-30T01:16:17.394Z,1000.02
2016-07-30T01:31:21.714Z,1000.04
2016-07-30T01:46:15.438Z,999.93
2016-07-30T02:01:15.434Z,999.91
2016-07-30T02:16:15.518Z,999.86
2016-07-30T02:31:15.546Z,999.76
2016-07-30T02:46:15.495Z,999.76
2016-07-30T03:01:15.455Z,999.88
2016-07-30T03:16:15.509Z,999.75
2016-07-30T03:31:19.982Z,999.76
2016-07-30T03:46:20.085Z,999.76
2016-07-30T04:01:20.156Z,999.86
2016-07-30T04:16:20.133Z,999.88
2016-07-30T04:31:15.443Z,1000.02
2016-07-30T04:46:20.070Z,999.92
2016-07-30T05:01:31.792Z,999.96
2016-07-30T05:16:22.114Z,1000.01
2016-07-30T05:31:21.640Z,999.95
2016-07-30T05:46:20.241Z,999.95
2016-07-30T06:01:15.591Z,999.99
2016-07-30T06:16:15.524Z,999.92
2016-07-30T06:31:15.709Z,999.92
2016-07-30T06:46:19.805Z,999.86
2016-07-30T07:01:17.722Z,999.93
2016-07-30T07:16:17.577Z,999.98
2016-07-30T07:31:15.584Z,999.88
2016-07-30T07:46:15.590Z,999.83
2016-07-30T08:01:15.500Z,1000.07
2016-07-30T08:16:15.511Z,1000.05
2016-07-30T08:31:15.568Z,999.77
2016-07-30T08:46:15.533Z,999.97
2016-07-30T09:01:20.477Z,999.98
2016-07-30T09:16:15.550Z,999.92
2016-07-30T09:31:20.200Z,999.73
2016-07-30T09:46:20.517Z,999.58
2016-07-30T10:01:21.787Z,999.91
2016-07-30T10:16:21.796Z,999.92
2016-07-30T10:31:21.951Z,999.94
2016-07-30T10:46:15.609Z,999.89
2016-07-30T11:01:15.614Z,999.8
2016-07-30T11:16:21.838Z,999.88
2016-07-30T11:31:15.635Z,999.91
2016-07-30T11:46:15.694Z,1000.03
2016-07-30T12:01:20.593Z,1000.04
2016-07-30T12:16:33.037Z,999.94
2016-07-30T12:31:21.988Z,999.86
2016-07-30T12:46:20.326Z,1000.03
2016-07-30T13:01:21.893Z,999.97
2016-07-30T13:16:15.682Z,1000.01
2016-07-30T13:31:18.563Z,1000.25
2016-07-30T13:46:20.689Z,1000.48
2016-07-30T14:01:15.703Z,1000.38
2016-07-30T14:16:15.711Z,1000.42
2016-07-30T14:31:19.832Z,1000.62
2016-07-30T14:46:15.722Z,1000.41
2016-07-30T15:01:15.790Z,1000.54
2016-07-30T15:16:15.750Z,1000.69
2016-07-30T15:31:20.334Z,1000.62
2016-07-30T15:46:15.756Z,1000.84
2016-07-30T16:01:15.821Z,1000.89
2016-07-30T16:16:15.774Z,1000.78
2016-07-30T16:31:26.951Z,1000.87
2016-07-30T16:46:15.790Z,1000.81
2016-07-30T17:01:22.059Z,1000.99
2016-07-30T17:16:26.141Z,1001
2016-07-30T17:31:28.647Z,1001.09
2016-07-30T17:46:15.833Z,1001.25
2016-07-30T18:01:15.851Z,1001.22
2016-07-30T18:16:22.276Z,1001.2
2016-07-30T18:31:17.947Z,1001.23
2016-07-30T18:46:27.313Z,1001.28
2016-07-30T19:01:22.045Z,1001.2
2016-07-30T19:16:20.564Z,1001.16
2016-07-30T19:31:16.069Z,1001.13
2016-07-30T19:46:15.990Z,1001.11
2016-07-30T20:01:15.998Z,1001.19
2016-07-30T20:16:20.604Z,1001.2
2016-07-30T20:31:15.992Z,1001.35
2016-07-30T20:46:15.965Z,1001.36
2016-07-30T21:01:16.051Z,1001.26
2016-07-30T21:16:16.035Z,1001.2
2016-07-30T21:31:20.620Z,1001.11
2016-07-30T21:46:18.012Z,1000.97
2016-07-30T22:01:16.030Z,1001.33
2016-07-30T22:16:16.077Z,1001.1
2016-07-30T22:31:22.338Z,1000.95
2016-07-30T23:01:22.424Z,1001.04
2016-07-30T23:16:20.663Z,1001.13
2016-07-30T23:31:37.050Z,1001.2
2016-07-30T23:46:34.775Z,1001.24
